Terminal Aerodrome Forecast
Issued by NWS

Home | Current Version | Previous Version | Text Only | Print | Product List | Glossary On
Versions: 1 2 3 4 5 6 7 8 9 10 11 12 13
000
FTUS43 KPAH 281120
TAFCGI
TAF
KCGI 281120Z 2812/2912 15003KT P6SM SKC
     FM281400 17007KT P6SM FEW050
     FM281700 19011G19KT P6SM SCT060
     FM290000 18006KT P6SM FEW050=

USA.gov is the U.S. government's official web portal to all federal, state and local government web resources and services.